createdAt,value
2018-08-03T00:01:28.714Z,24.63
2018-08-03T00:06:25.132Z,24.50
2018-08-03T00:11:22.610Z,24.48
2018-08-03T00:16:18.320Z,24.39
2018-08-03T00:21:14.022Z,24.26
2018-08-03T00:26:10.371Z,24.21
2018-08-03T00:31:06.397Z,24.18
2018-08-03T00:36:03.190Z,23.99
2018-08-03T00:40:58.877Z,24.16
2018-08-03T00:45:55.773Z,24.14
2018-08-03T00:50:52.566Z,23.92
2018-08-03T00:55:48.256Z,23.93
2018-08-03T01:00:44.540Z,23.91
2018-08-03T01:05:40.441Z,23.78
2018-08-03T01:10:36.378Z,23.55
2018-08-03T01:15:33.061Z,23.58
2018-08-03T01:20:28.621Z,23.47
2018-08-03T01:25:24.314Z,23.41
2018-08-03T01:30:20.182Z,23.43
2018-08-03T01:35:17.163Z,23.28
2018-08-03T01:40:12.788Z,23.31
2018-08-03T01:45:08.564Z,23.17
2018-08-03T01:50:05.430Z,23.13
2018-08-03T01:55:01.120Z,23.23
2018-08-03T01:59:57.151Z,23.20
2018-08-03T02:04:52.962Z,23.13
2018-08-03T02:09:48.867Z,23.15
2018-08-03T02:14:44.737Z,23.05
2018-08-03T02:19:40.554Z,22.85
2018-08-03T02:24:37.235Z,22.76
2018-08-03T02:29:34.059Z,22.65
2018-08-03T02:34:29.622Z,22.60
2018-08-03T02:39:25.635Z,22.70
2018-08-03T02:44:21.636Z,22.78
2018-08-03T02:49:17.430Z,22.70
2018-08-03T02:54:13.186Z,22.68
2018-08-03T02:59:08.848Z,22.62
2018-08-03T03:04:05.754Z,22.47
2018-08-03T03:09:02.370Z,22.44
2018-08-03T03:13:57.916Z,22.30
2018-08-03T03:18:53.468Z,22.22
2018-08-03T03:23:49.872Z,22.15
2018-08-03T03:28:45.879Z,22.26
2018-08-03T03:33:42.094Z,21.99
2018-08-03T03:38:37.895Z,22.10
2018-08-03T03:43:33.706Z,22.07
2018-08-03T03:48:31.323Z,22.17
2018-08-03T03:53:26.936Z,22.10
2018-08-03T03:58:22.950Z,21.77
2018-08-03T04:03:19.144Z,21.91
2018-08-03T04:08:16.007Z,21.82
2018-08-03T04:13:11.763Z,21.93
2018-08-03T04:18:07.720Z,21.77
2018-08-03T04:23:04.535Z,21.91
2018-08-03T04:28:01.165Z,21.96
2018-08-03T04:32:57.820Z,22.04
2018-08-03T04:37:53.556Z,22.04
2018-08-03T04:42:50.513Z,22.20
2018-08-03T04:47:47.402Z,22.90
2018-08-03T04:52:43.537Z,23.43
2018-08-03T04:57:40.445Z,23.51
2018-08-03T05:02:36.129Z,23.59
2018-08-03T05:07:32.399Z,23.47
2018-08-03T05:12:28.124Z,22.85
2018-08-03T05:17:23.964Z,22.75
2018-08-03T05:22:20.308Z,23.06
2018-08-03T05:27:17.345Z,23.27
2018-08-03T05:32:13.343Z,23.55
2018-08-03T05:37:09.718Z,23.62
2018-08-03T05:42:06.629Z,23.58
2018-08-03T05:47:03.159Z,23.50
2018-08-03T05:51:59.793Z,23.77
2018-08-03T05:56:55.645Z,24.02
2018-08-03T06:01:51.728Z,24.13
2018-08-03T06:06:47.795Z,24.13
2018-08-03T06:11:43.717Z,24.14
2018-08-03T06:16:39.689Z,24.11
2018-08-03T06:21:35.724Z,24.17
2018-08-03T06:26:31.799Z,24.40
2018-08-03T06:31:28.980Z,24.57
2018-08-03T06:36:24.887Z,24.18
2018-08-03T06:41:20.627Z,24.26
2018-08-03T06:46:17.694Z,24.38
2018-08-03T06:51:13.437Z,24.51
2018-08-03T06:56:10.365Z,24.80
2018-08-03T07:01:06.678Z,24.99
2018-08-03T07:06:02.554Z,25.07
2018-08-03T07:10:59.840Z,25.23
2018-08-03T07:15:56.622Z,25.33
2018-08-03T07:20:53.691Z,25.55
2018-08-03T07:25:50.940Z,25.63
2018-08-03T07:30:46.839Z,25.91
2018-08-03T07:35:43.923Z,26.06
2018-08-03T07:40:39.805Z,26.37
2018-08-03T07:45:35.786Z,26.58
2018-08-03T07:50:32.812Z,26.66
2018-08-03T07:55:28.990Z,26.85
2018-08-03T08:00:26.702Z,27.64
2018-08-03T08:05:25.289Z,28.78
2018-08-03T08:10:23.546Z,29.79
2018-08-03T08:15:23.265Z,31.40
2018-08-03T08:20:20.716Z,31.90
2018-08-03T08:25:18.998Z,32.71
2018-08-03T08:30:15.563Z,31.97
2018-08-03T08:35:11.950Z,32.07
2018-08-03T08:40:08.287Z,32.26
2018-08-03T08:45:04.996Z,32.26
2018-08-03T08:50:01.971Z,32.03
2018-08-03T08:54:58.320Z,31.55
2018-08-03T08:59:51.694Z,30.97
2018-08-03T09:04:47.999Z,31.56
2018-08-03T09:09:42.929Z,31.84
2018-08-03T09:14:38.305Z,31.71
2018-08-03T09:19:34.228Z,31.97
2018-08-03T09:24:31.811Z,31.99
2018-08-03T09:29:29.829Z,32.40
2018-08-03T09:34:26.849Z,32.33
2018-08-03T09:39:23.655Z,32.52
2018-08-03T09:44:21.257Z,33.32
2018-08-03T09:49:18.048Z,33.74
2018-08-03T09:54:14.696Z,34.06
2018-08-03T09:59:12.293Z,33.46
2018-08-03T10:04:07.923Z,32.96
2018-08-03T10:09:04.006Z,33.42
2018-08-03T10:14:00.763Z,33.59
2018-08-03T10:18:57.213Z,33.45
2018-08-03T10:23:53.733Z,34.08
2018-08-03T10:28:50.466Z,34.06
2018-08-03T10:33:46.714Z,33.86
2018-08-03T10:38:43.142Z,34.50
2018-08-03T10:43:40.061Z,35.33
2018-08-03T10:48:36.983Z,35.86
2018-08-03T10:53:34.737Z,35.52
2018-08-03T10:58:30.764Z,35.29
2018-08-03T11:03:27.979Z,35.23
2018-08-03T11:08:25.224Z,35.67
2018-08-03T11:13:21.479Z,35.55
2018-08-03T11:18:17.914Z,35.46
2018-08-03T11:23:15.434Z,35.53
2018-08-03T11:28:11.869Z,35.56
2018-08-03T11:33:08.006Z,35.19
2018-08-03T11:38:03.910Z,34.75
2018-08-03T11:43:00.671Z,35.24
2018-08-03T11:47:57.724Z,35.70
2018-08-03T11:52:54.569Z,35.46
2018-08-03T11:57:50.419Z,34.21
2018-08-03T12:02:46.672Z,34.83
2018-08-03T12:07:44.391Z,35.71
2018-08-03T12:12:41.044Z,35.71
2018-08-03T12:17:38.454Z,35.85
2018-08-03T12:22:35.859Z,35.98
2018-08-03T12:27:33.015Z,36.49
2018-08-03T12:32:29.783Z,36.51
2018-08-03T12:37:26.919Z,35.48
2018-08-03T12:42:21.743Z,35.23
2018-08-03T12:47:16.869Z,34.80
2018-08-03T12:52:11.231Z,34.57
2018-08-03T12:57:05.164Z,34.25
2018-08-03T13:02:00.534Z,34.33
2018-08-03T13:06:58.008Z,34.85
2018-08-03T13:11:54.726Z,35.51
2018-08-03T13:16:51.232Z,36.09
2018-08-03T13:21:47.434Z,36.30
2018-08-03T13:26:43.725Z,36.30
2018-08-03T13:31:40.667Z,35.61
2018-08-03T13:36:36.173Z,36.08
2018-08-03T13:41:31.516Z,35.58
2018-08-03T13:46:27.354Z,34.48
2018-08-03T13:51:23.021Z,34.67
2018-08-03T13:56:18.475Z,34.27
2018-08-03T14:01:15.167Z,34.18
2018-08-03T14:06:10.487Z,34.25
2018-08-03T14:11:06.741Z,33.61
2018-08-03T14:16:02.641Z,33.61
2018-08-03T14:20:58.395Z,33.69
2018-08-03T14:25:55.231Z,34.14
2018-08-03T14:30:51.917Z,34.05
2018-08-03T14:35:47.884Z,33.86
2018-08-03T14:40:44.649Z,33.62
2018-08-03T14:45:40.293Z,33.46
2018-08-03T14:50:36.084Z,33.28
2018-08-03T14:55:32.042Z,33.22
2018-08-03T15:00:27.961Z,33.24
2018-08-03T15:05:23.971Z,33.27
2018-08-03T15:10:20.097Z,33.42
2018-08-03T15:15:16.181Z,33.55
2018-08-03T15:20:12.218Z,33.49
2018-08-03T15:25:08.255Z,33.40
2018-08-03T15:30:04.312Z,33.40
2018-08-03T15:35:00.359Z,33.34
2018-08-03T15:39:56.430Z,33.42
2018-08-03T15:44:53.479Z,33.55
2018-08-03T15:49:50.193Z,33.67
2018-08-03T15:54:46.880Z,33.59
2018-08-03T15:59:42.410Z,33.47
2018-08-03T16:04:38.290Z,33.34
2018-08-03T16:09:34.317Z,33.20
2018-08-03T16:14:30.336Z,33.11
2018-08-03T16:19:26.767Z,33.05
2018-08-03T16:24:22.527Z,33.04
2018-08-03T16:29:18.326Z,33.00
2018-08-03T16:34:15.413Z,32.92
2018-08-03T16:39:11.204Z,32.90
2018-08-03T16:44:08.283Z,32.87
2018-08-03T16:49:04.089Z,32.75
2018-08-03T16:54:00.286Z,32.87
2018-08-03T16:58:56.672Z,32.96
2018-08-03T17:03:52.736Z,32.96
2018-08-03T17:08:48.872Z,33.11
2018-08-03T17:13:44.968Z,33.12
2018-08-03T17:18:41.044Z,33.07
2018-08-03T17:23:37.183Z,33.08
2018-08-03T17:28:34.110Z,32.90
2018-08-03T17:33:30.634Z,32.77
2018-08-03T17:38:27.557Z,32.75
2018-08-03T17:43:23.408Z,32.58
2018-08-03T17:48:19.467Z,32.53
2018-08-03T17:53:15.509Z,32.48
2018-08-03T17:58:11.594Z,32.41
2018-08-03T18:03:08.669Z,32.36
2018-08-03T18:08:04.415Z,32.26
2018-08-03T18:13:00.225Z,32.08
2018-08-03T18:17:56.337Z,31.99
2018-08-03T18:22:53.234Z,31.81
2018-08-03T18:27:48.826Z,31.71
2018-08-03T18:32:44.790Z,31.64
2018-08-03T18:37:40.850Z,31.47
2018-08-03T18:42:36.714Z,31.40
2018-08-03T18:47:32.671Z,31.17
2018-08-03T18:52:29.530Z,31.15
2018-08-03T18:57:25.186Z,30.94
2018-08-03T19:02:21.325Z,30.84
2018-08-03T19:07:18.341Z,30.72
2018-08-03T19:12:14.113Z,30.50
2018-08-03T19:17:11.223Z,30.37
2018-08-03T19:22:06.866Z,30.10
2018-08-03T19:27:02.990Z,30.02
2018-08-03T19:31:58.963Z,29.84
2018-08-03T19:36:54.935Z,29.68
2018-08-03T19:41:50.978Z,29.59
2018-08-03T19:46:47.186Z,29.56
2018-08-03T19:51:43.074Z,29.39
2018-08-03T19:56:39.434Z,29.29
2018-08-03T20:01:35.635Z,29.16
2018-08-03T20:06:31.665Z,29.12
2018-08-03T20:11:27.665Z,28.91
2018-08-03T20:16:23.617Z,28.86
2018-08-03T20:21:19.446Z,28.79
2018-08-03T20:26:15.422Z,28.66
2018-08-03T20:31:11.381Z,28.54
2018-08-03T20:36:08.230Z,28.33
2018-08-03T20:41:03.823Z,28.32
2018-08-03T20:45:59.707Z,28.11
2018-08-03T20:50:57.196Z,27.93
2018-08-03T20:55:52.965Z,27.85
2018-08-03T21:00:49.028Z,27.68
2018-08-03T21:05:45.032Z,27.59
2018-08-03T21:10:40.917Z,27.37
2018-08-03T21:15:36.748Z,27.44
2018-08-03T21:20:32.898Z,27.25
2018-08-03T21:25:28.891Z,27.20
2018-08-03T21:30:25.758Z,27.11
2018-08-03T21:35:22.437Z,27.03
2018-08-03T21:40:19.196Z,26.93
2018-08-03T21:45:14.804Z,26.85
2018-08-03T21:50:10.788Z,26.73
2018-08-03T21:55:06.923Z,26.77
2018-08-03T22:00:02.853Z,26.68
2018-08-03T22:04:58.763Z,26.59
2018-08-03T22:09:54.645Z,26.56
2018-08-03T22:14:51.530Z,26.53
2018-08-03T22:19:47.154Z,26.36
2018-08-03T22:24:42.915Z,26.18
2018-08-03T22:29:38.844Z,26.29
2018-08-03T22:34:34.568Z,26.07
2018-08-03T22:39:30.523Z,25.93
2018-08-03T22:44:26.329Z,25.90
2018-08-03T22:49:22.314Z,25.83
2018-08-03T22:54:18.545Z,25.80
2018-08-03T22:59:14.406Z,25.88
2018-08-03T23:04:10.296Z,25.68
2018-08-03T23:09:07.173Z,25.53
2018-08-03T23:14:03.368Z,25.63
2018-08-03T23:18:59.161Z,25.65
2018-08-03T23:23:56.002Z,25.60
2018-08-03T23:28:52.104Z,25.51
2018-08-03T23:33:48.634Z,25.54
2018-08-03T23:38:45.393Z,25.35
2018-08-03T23:43:41.000Z,25.36
2018-08-03T23:48:36.824Z,25.17
2018-08-03T23:53:33.852Z,25.17
2018-08-03T23:58:29.724Z,25.03
